Time;durP1;ratioP1;P1;durP2;ratioP2;P2;SDS_P1;SDS_P2;PMS_P1;PMS_P2;Temp;Humidity;BMP_temperature;BMP_pressure;BME280_temperature;BME280_humidity;BME280_pressure;Samples;Min_cycle;Max_cycle;Signal;HPM_P1;HPM_P2
2023/01/16 00:03:21;;;;;;;7.68;4.30;;;;;;;;;;10408764;28;20021;-57
2023/01/16 00:08:21;;;;;;;6.47;3.95;;;;;;;;;;10408351;28;20408;-48
2023/01/16 00:13:22;;;;;;;6.43;3.58;;;;;;;;;;10408595;28;20033;-54
2023/01/16 00:18:23;;;;;;;5.30;3.67;;;;;;;;;;10408366;28;20037;-55
2023/01/16 00:23:23;;;;;;;7.57;4.47;;;;;;;;;;10407939;28;20579;-55
2023/01/16 00:28:24;;;;;;;5.32;3.95;;;;;;;;;;10407152;28;20026;-56
2023/01/16 00:33:24;;;;;;;4.05;3.45;;;;;;;;;;10408021;28;20376;-49
2023/01/16 00:38:25;;;;;;;6.22;4.13;;;;;;;;;;10407445;28;20553;-56
2023/01/16 00:43:26;;;;;;;6.25;3.95;;;;;;;;;;10408270;28;20040;-54
2023/01/16 00:48:26;;;;;;;4.60;3.38;;;;;;;;;;10406795;28;20025;-60
2023/01/16 00:53:27;;;;;;;6.68;3.75;;;;;;;;;;10406687;28;20021;-59
2023/01/16 00:58:27;;;;;;;4.43;3.67;;;;;;;;;;10407302;28;20037;-55
2023/01/16 01:03:28;;;;;;;5.70;3.65;;;;;;;;;;10406195;28;20469;-56
2023/01/16 01:08:29;;;;;;;6.15;3.85;;;;;;;;;;10407366;28;20350;-57
2023/01/16 01:13:29;;;;;;;5.43;3.80;;;;;;;;;;10406494;28;20025;-59
2023/01/16 01:18:30;;;;;;;5.88;4.00;;;;;;;;;;10406649;28;20029;-59
2023/01/16 01:23:31;;;;;;;5.00;3.40;;;;;;;;;;10403264;28;20219;-56
2023/01/16 01:28:32;;;;;;;4.95;3.72;;;;;;;;;;10401339;28;20034;-59
2023/01/16 01:33:33;;;;;;;6.95;3.22;;;;;;;;;;10406180;28;20832;-49
2023/01/16 01:38:34;;;;;;;4.20;3.42;;;;;;;;;;10411736;28;20056;-54
2023/01/16 01:43:51;;;;;;;5.03;3.70;;;;;;;;;;10414207;28;20029;-47
2023/01/16 01:48:59;;;;;;;3.92;3.20;;;;;;;;;;10414194;28;20764;-53
2023/01/16 01:54:14;;;;;;;4.60;3.20;;;;;;;;;;10412587;28;20022;-53
2023/01/16 01:59:21;;;;;;;4.57;3.47;;;;;;;;;;10412153;28;20037;-50
2023/01/16 02:04:35;;;;;;;3.45;3.15;;;;;;;;;;10393179;28;20025;-56
2023/01/16 02:09:36;;;;;;;5.03;3.45;;;;;;;;;;10402061;28;20484;-53
2023/01/16 02:14:42;;;;;;;3.85;3.13;;;;;;;;;;10411834;28;20025;-59
2023/01/16 02:20:06;;;;;;;3.80;3.40;;;;;;;;;;10400136;28;20107;-55
2023/01/16 02:25:40;;;;;;;3.70;3.15;;;;;;;;;;10413026;28;20472;-58
2023/01/16 02:31:02;;;;;;;3.47;2.80;;;;;;;;;;10412877;28;20036;-57
2023/01/16 02:36:32;;;;;;;5.05;3.03;;;;;;;;;;10396542;28;20048;-50
2023/01/16 02:42:15;;;;;;;3.63;3.33;;;;;;;;;;10412272;28;20040;-51
2023/01/16 02:47:50;;;;;;;4.03;3.10;;;;;;;;;;10409965;28;20022;-56
2023/01/16 02:53:16;;;;;;;5.15;3.30;;;;;;;;;;10411182;28;20040;-60
2023/01/16 02:58:19;;;;;;;3.60;2.85;;;;;;;;;;10400038;28;20227;-52
2023/01/16 03:03:34;;;;;;;4.25;3.30;;;;;;;;;;10410412;28;20026;-56
2023/01/16 03:09:03;;;;;;;3.50;2.95;;;;;;;;;;10387585;28;20469;-57
2023/01/16 03:14:32;;;;;;;3.53;3.22;;;;;;;;;;10410861;28;20024;-54
2023/01/16 03:20:06;;;;;;;3.47;2.80;;;;;;;;;;10409241;28;20109;-59
2023/01/16 03:25:47;;;;;;;3.80;3.25;;;;;;;;;;10407823;28;20021;-55
2023/01/16 03:30:51;;;;;;;4.00;2.88;;;;;;;;;;10400102;28;20014;-58
2023/01/16 03:36:07;;;;;;;3.25;2.95;;;;;;;;;;10407886;28;20148;-60
2023/01/16 03:41:10;;;;;;;3.35;2.80;;;;;;;;;;10407508;28;20029;-51
2023/01/16 03:46:18;;;;;;;3.33;2.88;;;;;;;;;;10409303;28;20353;-53
2023/01/16 03:51:28;;;;;;;3.28;2.92;;;;;;;;;;10407341;28;20029;-53
2023/01/16 03:56:52;;;;;;;3.88;2.60;;;;;;;;;;10408096;28;20033;-56
2023/01/16 04:02:22;;;;;;;3.88;2.90;;;;;;;;;;10393835;28;20029;-48
2023/01/16 04:07:34;;;;;;;3.33;2.83;;;;;;;;;;10403199;28;20030;-60
2023/01/16 04:13:07;;;;;;;4.88;2.70;;;;;;;;;;10407757;28;20493;-60
2023/01/16 04:18:07;;;;;;;3.92;3.10;;;;;;;;;;10394236;28;20395;-57
2023/01/16 04:23:08;;;;;;;8.93;2.72;;;;;;;;;;10407715;28;20036;-52
2023/01/16 04:28:08;;;;;;;2.83;2.50;;;;;;;;;;10406796;28;20033;-50
2023/01/16 04:33:09;;;;;;;3.20;2.90;;;;;;;;;;10407726;28;20037;-52
2023/01/16 04:38:11;;;;;;;3.63;2.80;;;;;;;;;;10407331;28;20042;-56
2023/01/16 04:43:12;;;;;;;6.35;3.22;;;;;;;;;;10408011;28;20180;-50
2023/01/16 04:48:13;;;;;;;5.45;2.70;;;;;;;;;;10407434;28;20537;-53
2023/01/16 04:53:13;;;;;;;2.63;2.42;;;;;;;;;;10406321;28;20034;-59
2023/01/16 04:58:14;;;;;;;3.88;2.83;;;;;;;;;;10407941;28;20029;-55
2023/01/16 05:03:14;;;;;;;3.20;2.40;;;;;;;;;;10407807;28;20026;-60
2023/01/16 05:08:18;;;;;;;4.72;2.78;;;;;;;;;;10398563;28;20056;-57
2023/01/16 05:13:18;;;;;;;3.83;2.70;;;;;;;;;;10406881;28;20497;-59
2023/01/16 05:18:19;;;;;;;2.75;2.45;;;;;;;;;;10407484;28;20038;-58
2023/01/16 05:23:19;;;;;;;2.90;2.60;;;;;;;;;;10406641;28;20032;-51
2023/01/16 05:28:20;;;;;;;3.28;2.72;;;;;;;;;;10406590;28;20056;-54
2023/01/16 05:33:21;;;;;;;2.75;2.42;;;;;;;;;;10406667;28;20025;-57
2023/01/16 05:38:22;;;;;;;3.05;2.33;;;;;;;;;;10406249;28;20512;-57
2023/01/16 05:43:22;;;;;;;3.05;2.40;;;;;;;;;;10405837;28;20453;-59
2023/01/16 05:48:23;;;;;;;2.85;2.47;;;;;;;;;;10406354;28;20025;-59
2023/01/16 05:53:27;;;;;;;4.20;2.50;;;;;;;;;;10405965;28;20404;-59
2023/01/16 05:58:28;;;;;;;2.70;2.50;;;;;;;;;;10406288;28;20460;-58
2023/01/16 06:03:29;;;;;;;3.10;2.80;;;;;;;;;;10403349;28;20021;-61
2023/01/16 06:08:31;;;;;;;2.78;2.50;;;;;;;;;;10399349;28;20033;-61
2023/01/16 06:13:32;;;;;;;3.40;2.47;;;;;;;;;;10396367;28;20064;-61
2023/01/16 06:18:32;;;;;;;2.60;2.40;;;;;;;;;;10406178;28;20037;-58
2023/01/16 06:23:33;;;;;;;2.65;2.40;;;;;;;;;;10406238;28;20400;-60
2023/01/16 06:28:34;;;;;;;11.25;2.80;;;;;;;;;;10413136;28;20468;-63
2023/01/16 06:33:35;;;;;;;5.35;2.80;;;;;;;;;;10409601;28;20094;-61
2023/01/16 06:38:35;;;;;;;3.80;3.00;;;;;;;;;;10411271;28;20057;-56
2023/01/16 06:43:36;;;;;;;4.68;3.15;;;;;;;;;;10409355;28;20033;-60
2023/01/16 06:48:37;;;;;;;4.60;3.13;;;;;;;;;;10410474;28;20025;-61
2023/01/16 06:53:37;;;;;;;3.45;2.50;;;;;;;;;;10404101;28;20029;-63
2023/01/16 06:58:38;;;;;;;6.28;3.03;;;;;;;;;;10403574;28;20381;-63
2023/01/16 07:03:38;;;;;;;5.03;3.53;;;;;;;;;;10409083;28;20025;-60
2023/01/16 07:08:39;;;;;;;10.27;3.72;;;;;;;;;;10408808;28;20025;-64
2023/01/16 07:13:40;;;;;;;8.75;3.70;;;;;;;;;;10410079;28;20024;-63
2023/01/16 07:24:10;;;;;;;7.75;3.22;;;;;;;;;;10410475;28;20033;-62
2023/01/16 07:29:11;;;;;;;6.40;3.60;;;;;;;;;;10410308;28;20538;-62
2023/01/16 07:34:11;;;;;;;8.93;3.25;;;;;;;;;;10409658;28;20095;-61
2023/01/16 07:39:12;;;;;;;5.55;3.47;;;;;;;;;;10407813;28;20507;-63
2023/01/16 07:44:12;;;;;;;9.60;3.50;;;;;;;;;;10416901;28;20633;-59
2023/01/16 07:49:13;;;;;;;24.00;3.50;;;;;;;;;;10409824;28;20472;-46
2023/01/16 07:54:13;;;;;;;8.13;3.17;;;;;;;;;;10410176;28;20018;-61
2023/01/16 07:59:14;;;;;;;11.50;3.20;;;;;;;;;;10409483;28;20029;-59
2023/01/16 08:04:15;;;;;;;7.15;3.15;;;;;;;;;;10408380;28;20037;-63
2023/01/16 08:09:15;;;;;;;14.55;3.88;;;;;;;;;;10407882;28;20044;-54
2023/01/16 08:14:16;;;;;;;7.72;2.75;;;;;;;;;;10408840;28;20036;-60
2023/01/16 08:19:16;;;;;;;8.75;3.65;;;;;;;;;;10407794;28;20507;-61
2023/01/16 08:24:18;;;;;;;6.75;2.85;;;;;;;;;;10407935;28;20021;-63
2023/01/16 08:29:19;;;;;;;7.05;3.22;;;;;;;;;;10408225;28;20025;-53
2023/01/16 08:34:19;;;;;;;3.10;2.80;;;;;;;;;;10407978;28;20491;-51
2023/01/16 08:39:20;;;;;;;7.97;3.20;;;;;;;;;;10407420;28;20160;-62
2023/01/16 08:54:58;;;;;;;;;;;;;;;;;;10405152;28;19916;-54
2023/01/16 08:59:58;;;;;;;7.67;2.73;;;;;;;;;;10406099;28;20013;-56
2023/01/16 09:04:59;;;;;;;3.13;2.83;;;;;;;;;;10406247;28;20447;-62
2023/01/16 09:10:00;;;;;;;3.65;2.60;;;;;;;;;;10397873;28;20403;-61
2023/01/16 09:15:01;;;;;;;3.33;2.38;;;;;;;;;;10406905;28;20036;-62
2023/01/16 09:20:02;;;;;;;7.13;3.17;;;;;;;;;;10406970;28;20029;-63
2023/01/16 09:25:02;;;;;;;4.43;2.85;;;;;;;;;;10406665;28;20397;-56
2023/01/16 09:30:05;;;;;;;2.92;2.42;;;;;;;;;;10405647;28;20094;-62
2023/01/16 09:35:06;;;;;;;5.47;2.65;;;;;;;;;;10406234;28;20107;-60
2023/01/16 09:40:13;;;;;;;3.97;2.90;;;;;;;;;;10406212;28;20029;-62
2023/01/16 09:45:19;;;;;;;4.25;2.75;;;;;;;;;;10404645;28;20072;-59
2023/01/16 09:50:33;;;;;;;3.10;2.75;;;;;;;;;;10404470;28;20037;-62
2023/01/16 10:01:15;;;;;;;3.45;2.58;;;;;;;;;;10412828;28;20116;-59
2023/01/16 10:06:29;;;;;;;6.68;2.67;;;;;;;;;;10401677;28;20030;-56
2023/01/16 10:11:42;;;;;;;3.58;2.50;;;;;;;;;;10404168;28;20136;-46
2023/01/16 10:17:15;;;;;;;2.97;2.63;;;;;;;;;;10412294;28;20030;-54
2023/01/16 10:22:29;;;;;;;4.40;2.60;;;;;;;;;;10402829;28;20033;-51
2023/01/16 10:27:41;;;;;;;5.78;2.60;;;;;;;;;;10412822;28;20022;-58
2023/01/16 10:32:52;;;;;;;3.70;2.33;;;;;;;;;;10411297;28;20040;-61
2023/01/16 10:37:55;;;;;;;4.95;2.83;;;;;;;;;;10404232;23;20046;-56
2023/01/16 10:54:04;;;;;;;5.82;2.17;;;;;;;;;;10313035;28;20615;-48
2023/01/16 10:59:04;;;;;;;3.97;2.58;;;;;;;;;;10370526;28;20101;-49
2023/01/16 11:04:09;;;;;;;2.85;2.40;;;;;;;;;;10358031;28;20029;-48
2023/01/16 11:09:18;;;;;;;3.13;2.42;;;;;;;;;;10359723;28;20026;-49
2023/01/16 11:19:44;;;;;;;3.03;2.50;;;;;;;;;;10357817;28;20034;-49
2023/01/16 11:24:45;;;;;;;3.03;2.33;;;;;;;;;;10369389;28;20080;-51
2023/01/16 11:29:46;;;;;;;5.47;2.22;;;;;;;;;;10357489;28;20026;-51
2023/01/16 11:34:48;;;;;;;4.90;2.60;;;;;;;;;;10369139;28;20049;-50
2023/01/16 11:39:53;;;;;;;3.53;2.53;;;;;;;;;;10357268;28;20121;-55
2023/01/16 11:50:33;;;;;;;3.08;2.75;;;;;;;;;;10360193;28;20022;-56
2023/01/16 11:55:48;;;;;;;5.07;2.63;;;;;;;;;;10365821;28;20091;-50
2023/01/16 12:02:19;;;;;;;4.13;2.60;;;;;;;;;;10368291;28;20505;-51
2023/01/16 12:07:31;;;;;;;3.72;2.53;;;;;;;;;;10251384;28;20045;-54
2023/01/16 12:18:20;;;;;;;2.58;2.30;;;;;;;;;;10280408;28;20534;-50
2023/01/16 12:24:14;;;;;;;2.92;2.33;;;;;;;;;;10266702;28;20039;-51
2023/01/16 12:29:41;;;;;;;9.63;2.40;;;;;;;;;;10242007;28;20038;-47
2023/01/16 12:34:52;;;;;;;8.52;2.35;;;;;;;;;;10261300;28;20524;-47
2023/01/16 12:40:30;;;;;;;2.65;2.25;;;;;;;;;;10364450;28;20401;-47
2023/01/16 12:45:59;;;;;;;2.47;1.92;;;;;;;;;;10355870;28;20030;-50
2023/01/16 12:51:39;;;;;;;2.10;1.90;;;;;;;;;;10344408;28;20041;-47
2023/01/16 12:57:27;;;;;;;2.45;2.25;;;;;;;;;;10358272;28;20038;-46
2023/01/16 13:02:34;;;;;;;;;;;;;;;;;;10362887;28;20549;-48
2023/01/16 13:07:42;;;;;;;2.15;1.95;;;;;;;;;;10345522;28;19918;-48
2023/01/16 13:18:16;;;;;;;3.17;1.98;;;;;;;;;;10342804;28;20038;-48
2023/01/16 13:23:23;;;;;;;2.50;2.00;;;;;;;;;;10367277;28;20087;-46
2023/01/16 13:28:54;;;;;;;2.40;2.20;;;;;;;;;;10355664;28;20089;-48
2023/01/16 13:34:05;;;;;;;1.95;1.80;;;;;;;;;;10365997;28;20100;-47
2023/01/16 13:39:42;;;;;;;5.07;2.40;;;;;;;;;;10351685;28;20050;-49
2023/01/16 13:50:26;;;;;;;2.15;1.95;;;;;;;;;;10353696;28;20037;-50
2023/01/16 13:55:40;;;;;;;4.83;2.30;;;;;;;;;;10344384;28;20033;-53
2023/01/16 14:00:42;;;;;;;3.70;2.20;;;;;;;;;;10369024;28;20057;-49
2023/01/16 14:05:52;;;;;;;2.20;1.98;;;;;;;;;;10373357;28;20423;-47
2023/01/16 14:10:58;;;;;;;2.88;1.88;;;;;;;;;;10364401;28;20026;-50
2023/01/16 14:16:35;;;;;;;2.38;1.90;;;;;;;;;;10361268;28;20027;-49
2023/01/16 14:27:02;;;;;;;2.33;1.88;;;;;;;;;;10360497;28;20038;-46
2023/01/16 14:32:17;;;;;;;2.10;1.80;;;;;;;;;;10361266;28;20037;-49
2023/01/16 14:37:36;;;;;;;2.35;1.63;;;;;;;;;;10362320;28;20103;-49
2023/01/16 14:59:10;;;;;;;2.70;2.10;;;;;;;;;;10357570;28;20034;-49
2023/01/16 15:04:15;;;;;;;2.28;1.70;;;;;;;;;;10346635;28;20520;-54
2023/01/16 15:09:18;;;;;;;1.98;1.77;;;;;;;;;;10360902;28;20026;-51
2023/01/16 15:14:30;;;;;;;1.77;1.60;;;;;;;;;;10345765;28;20548;-47
2023/01/16 15:25:03;;;;;;;1.85;1.60;;;;;;;;;;10371115;28;20444;-46
2023/01/16 15:30:18;;;;;;;2.33;1.80;;;;;;;;;;10353068;28;20056;-54
2023/01/16 15:35:22;;;;;;;2.45;2.00;;;;;;;;;;10368340;28;20073;-55
2023/01/16 15:40:29;;;;;;;1.90;1.73;;;;;;;;;;10369031;28;20040;-52
2023/01/16 15:51:01;;;;;;;4.30;2.15;;;;;;;;;;10348278;28;20038;-52
2023/01/16 15:56:16;;;;;;;2.15;1.70;;;;;;;;;;10332224;28;20174;-50
2023/01/16 16:01:26;;;;;;;5.05;1.95;;;;;;;;;;10345567;28;20563;-52
2023/01/16 16:06:29;;;;;;;2.30;1.67;;;;;;;;;;10337742;28;20022;-50
2023/01/16 16:22:49;;;;;;;1.67;1.58;;;;;;;;;;10367677;28;20034;-51
2023/01/16 16:27:49;;;;;;;4.40;1.80;;;;;;;;;;10364326;28;20499;-50
2023/01/16 16:32:52;;;;;;;4.57;2.00;;;;;;;;;;10367703;28;20033;-52
2023/01/16 16:37:52;;;;;;;2.00;1.80;;;;;;;;;;10366153;28;20046;-51
2023/01/16 16:42:58;;;;;;;2.92;1.70;;;;;;;;;;10367180;28;20107;-56
2023/01/16 16:48:24;;;;;;;3.97;1.63;;;;;;;;;;10366415;28;20108;-50
2023/01/16 16:53:26;;;;;;;5.93;1.70;;;;;;;;;;10366764;28;20076;-48
2023/01/16 16:58:27;;;;;;;1.70;1.60;;;;;;;;;;10366674;28;20475;-49
2023/01/16 17:03:30;;;;;;;1.77;1.67;;;;;;;;;;10363941;28;20089;-48
2023/01/16 17:08:31;;;;;;;1.85;1.70;;;;;;;;;;10344119;28;20069;-49
2023/01/16 17:13:31;;;;;;;2.28;1.80;;;;;;;;;;10366015;28;20037;-47
2023/01/16 17:18:32;;;;;;;1.98;1.77;;;;;;;;;;10353521;28;20037;-49
2023/01/16 17:23:33;;;;;;;3.47;1.98;;;;;;;;;;10351925;28;20535;-50
2023/01/16 17:28:34;;;;;;;2.92;1.67;;;;;;;;;;10359391;28;20038;-47
2023/01/16 17:33:34;;;;;;;2.25;1.65;;;;;;;;;;10360715;28;20109;-48
2023/01/16 17:38:41;;;;;;;5.07;1.98;;;;;;;;;;10362936;28;20042;-52
2023/01/16 17:49:01;;;;;;;;;;;;;;;;;;10366756;28;20046;-47
2023/01/16 17:54:02;;;;;;;6.07;2.17;;;;;;;;;;10349719;28;20466;-55
2023/01/16 17:59:07;;;;;;;4.07;2.67;;;;;;;;;;10365599;28;20103;-49
2023/01/16 18:04:08;;;;;;;6.18;2.90;;;;;;;;;;10349191;28;20389;-49
2023/01/16 18:09:11;;;;;;;5.45;3.20;;;;;;;;;;10349271;28;20030;-48
2023/01/16 18:19:32;;;;;;;15.75;4.30;;;;;;;;;;10352456;28;20030;-49
2023/01/16 18:24:36;;;;;;;6.55;3.67;;;;;;;;;;10369375;28;20049;-49
2023/01/16 18:29:38;;;;;;;8.20;3.20;;;;;;;;;;10345665;28;20122;-47
2023/01/16 18:34:39;;;;;;;11.07;3.45;;;;;;;;;;10366606;28;20051;-46
2023/01/16 19:06:15;;;;;;;7.15;2.80;;;;;;;;;;10367964;28;20083;-44
2023/01/16 19:11:18;;;;;;;12.70;2.90;;;;;;;;;;10371252;28;20064;-45
2023/01/16 19:21:43;;;;;;;4.55;2.60;;;;;;;;;;10368440;28;20025;-45
2023/01/16 19:26:45;;;;;;;7.32;2.78;;;;;;;;;;10367912;28;20026;-44
2023/01/16 19:31:46;;;;;;;6.47;2.47;;;;;;;;;;10369104;28;20100;-45
2023/01/16 19:36:47;;;;;;;4.93;2.53;;;;;;;;;;10368973;28;20393;-45
2023/01/16 19:47:07;;;;;;;5.15;2.47;;;;;;;;;;10369568;28;20014;-46
2023/01/16 19:52:09;;;;;;;5.32;2.45;;;;;;;;;;10367630;28;20040;-44
2023/01/16 19:57:10;;;;;;;3.50;2.22;;;;;;;;;;10367164;28;20076;-45
2023/01/16 20:02:11;;;;;;;3.83;2.47;;;;;;;;;;10367480;28;20036;-44
2023/01/16 20:07:13;;;;;;;6.60;2.70;;;;;;;;;;10360752;28;20030;-45
2023/01/16 20:12:24;;;;;;;6.50;2.42;;;;;;;;;;10357757;28;20124;-45
2023/01/16 20:17:25;;;;;;;6.32;2.60;;;;;;;;;;10355219;28;20038;-45
2023/01/16 20:22:26;;;;;;;5.93;2.00;;;;;;;;;;10354002;28;20038;-44
2023/01/16 20:27:27;;;;;;;4.28;2.20;;;;;;;;;;10359360;28;20030;-45
2023/01/16 20:32:28;;;;;;;2.92;2.05;;;;;;;;;;10363829;28;20041;-45
2023/01/16 20:37:28;;;;;;;3.25;2.10;;;;;;;;;;10347075;28;20068;-44
2023/01/16 20:47:48;;;;;;;3.33;1.90;;;;;;;;;;10346879;28;20438;-47
2023/01/16 20:52:50;;;;;;;3.33;1.70;;;;;;;;;;10363502;28;20026;-48
2023/01/16 20:57:50;;;;;;;7.00;2.15;;;;;;;;;;10362729;28;20104;-45
2023/01/16 21:02:51;;;;;;;5.25;2.30;;;;;;;;;;10362712;28;20040;-44
2023/01/16 21:07:51;;;;;;;2.20;2.00;;;;;;;;;;10358777;28;20540;-45
2023/01/16 21:23:30;;;;;;;;;;;;;;;;;;10362400;28;20488;-46
2023/01/16 21:28:30;;;;;;;4.40;2.00;;;;;;;;;;10364261;28;19917;-44
2023/01/16 21:33:31;;;;;;;3.40;2.33;;;;;;;;;;10362536;28;21006;-44
2023/01/16 21:38:31;;;;;;;3.15;1.85;;;;;;;;;;10363249;28;20046;-45
2023/01/16 21:48:51;;;;;;;3.60;2.13;;;;;;;;;;10365118;28;20029;-44
2023/01/16 21:53:52;;;;;;;3.65;1.98;;;;;;;;;;10364979;28;20479;-44
2023/01/16 21:58:54;;;;;;;6.53;2.38;;;;;;;;;;10367502;28;20034;-45
2023/01/16 22:03:57;;;;;;;8.20;2.20;;;;;;;;;;10357499;28;20034;-47
2023/01/16 22:08:58;;;;;;;11.77;2.45;;;;;;;;;;10363626;28;20033;-47
2023/01/16 22:19:30;;;;;;;8.60;2.60;;;;;;;;;;10360510;28;20034;-46
2023/01/16 22:24:32;;;;;;;7.22;2.47;;;;;;;;;;10371275;28;20018;-46
2023/01/16 22:29:32;;;;;;;5.85;2.17;;;;;;;;;;10370404;28;20022;-46
2023/01/16 22:34:34;;;;;;;2.67;2.10;;;;;;;;;;10360283;28;20250;-46
2023/01/16 22:39:35;;;;;;;5.40;2.38;;;;;;;;;;10358847;28;20400;-46
2023/01/16 22:49:54;;;;;;;8.07;2.80;;;;;;;;;;10369549;28;20050;-46
2023/01/16 22:54:55;;;;;;;6.90;2.42;;;;;;;;;;10371477;28;20117;-47
2023/01/16 22:59:55;;;;;;;8.27;2.28;;;;;;;;;;10371007;28;20033;-50
2023/01/16 23:04:56;;;;;;;5.50;2.25;;;;;;;;;;10369041;28;20033;-45
2023/01/16 23:09:57;;;;;;;7.22;2.00;;;;;;;;;;10359325;28;20385;-46
2023/01/16 23:14:57;;;;;;;3.97;1.85;;;;;;;;;;10357063;28;20022;-45
2023/01/16 23:19:58;;;;;;;6.60;2.35;;;;;;;;;;10350858;28;20489;-46
2023/01/16 23:24:59;;;;;;;5.57;2.38;;;;;;;;;;10368610;28;20520;-45
2023/01/16 23:30:00;;;;;;;6.18;2.20;;;;;;;;;;10362910;28;20473;-46
2023/01/16 23:35:00;;;;;;;4.57;2.03;;;;;;;;;;10355544;28;20050;-46
2023/01/16 23:40:01;;;;;;;4.22;2.22;;;;;;;;;;10353185;28;20038;-45
2023/01/16 23:45:01;;;;;;;5.15;2.08;;;;;;;;;;10362362;28;20056;-45
2023/01/16 23:50:03;;;;;;;3.40;2.00;;;;;;;;;;10367210;28;20041;-45
2023/01/16 23:55:04;;;;;;;8.65;2.20;;;;;;;;;;10369281;28;20025;-45
